sensor_id;sensor_type;location;lat;lon;timestamp;temperature;humidity
26947;DHT22;14501;52.282;10.560;2023-08-06T00:01:31;15.00;99.90
26947;DHT22;14501;52.282;10.560;2023-08-06T00:03:56;15.00;99.90
26947;DHT22;14501;52.282;10.560;2023-08-06T00:06:22;14.90;99.90
26947;DHT22;14501;52.282;10.560;2023-08-06T00:08:47;15.00;99.90
26947;DHT22;14501;52.282;10.560;2023-08-06T00:11:13;14.90;99.90
26947;DHT22;14501;52.282;10.560;2023-08-06T00:13:38;14.90;99.90
26947;DHT22;14501;52.282;10.560;2023-08-06T00:16:14;14.90;99.90
26947;DHT22;14501;52.282;10.560;2023-08-06T00:18:39;14.90;99.90
26947;DHT22;14501;52.282;10.560;2023-08-06T00:21:05;15.00;99.90
26947;DHT22;14501;52.282;10.560;2023-08-06T00:23:31;14.80;99.90
26947;DHT22;14501;52.282;10.560;2023-08-06T00:25:56;14.90;99.90
26947;DHT22;14501;52.282;10.560;2023-08-06T00:28:22;14.80;99.90
26947;DHT22;14501;52.282;10.560;2023-08-06T00:30:53;14.90;99.90
26947;DHT22;14501;52.282;10.560;2023-08-06T00:33:19;14.80;99.90
26947;DHT22;14501;52.282;10.560;2023-08-06T00:35:45;15.10;99.90
26947;DHT22;14501;52.282;10.560;2023-08-06T00:38:10;14.80;99.90
26947;DHT22;14501;52.282;10.560;2023-08-06T00:40:36;14.80;99.90
26947;DHT22;14501;52.282;10.560;2023-08-06T00:43:01;14.90;99.90
26947;DHT22;14501;52.282;10.560;2023-08-06T00:45:27;14.90;99.90
26947;DHT22;14501;52.282;10.560;2023-08-06T00:47:55;14.90;99.90
26947;DHT22;14501;52.282;10.560;2023-08-06T00:50:21;14.90;99.90
26947;DHT22;14501;52.282;10.560;2023-08-06T00:52:48;14.90;99.90
26947;DHT22;14501;52.282;10.560;2023-08-06T00:55:15;15.00;99.90
26947;DHT22;14501;52.282;10.560;2023-08-06T01:00:07;14.90;99.90
26947;DHT22;14501;52.282;10.560;2023-08-06T01:02:33;14.90;99.90
26947;DHT22;14501;52.282;10.560;2023-08-06T01:04:59;14.90;99.90
26947;DHT22;14501;52.282;10.560;2023-08-06T01:15:55;14.80;99.90
26947;DHT22;14501;52.282;10.560;2023-08-06T01:18:25;14.80;99.90
26947;DHT22;14501;52.282;10.560;2023-08-06T01:20:50;14.80;99.90
26947;DHT22;14501;52.282;10.560;2023-08-06T01:23:17;14.80;99.90
26947;DHT22;14501;52.282;10.560;2023-08-06T01:25:49;15.10;99.90
26947;DHT22;14501;52.282;10.560;2023-08-06T01:28:22;14.80;99.90
26947;DHT22;14501;52.282;10.560;2023-08-06T01:30:49;14.70;99.90
26947;DHT22;14501;52.282;10.560;2023-08-06T01:33:19;14.70;99.90
26947;DHT22;14501;52.282;10.560;2023-08-06T01:35:48;14.70;99.90
26947;DHT22;14501;52.282;10.560;2023-08-06T01:38:15;14.70;99.90
26947;DHT22;14501;52.282;10.560;2023-08-06T01:40:40;14.70;99.90
26947;DHT22;14501;52.282;10.560;2023-08-06T01:43:06;14.70;99.90
26947;DHT22;14501;52.282;10.560;2023-08-06T01:45:31;14.70;99.90
26947;DHT22;14501;52.282;10.560;2023-08-06T01:47:57;14.60;99.90
26947;DHT22;14501;52.282;10.560;2023-08-06T01:50:23;14.70;99.90
26947;DHT22;14501;52.282;10.560;2023-08-06T01:52:48;14.70;99.90
26947;DHT22;14501;52.282;10.560;2023-08-06T01:55:14;14.70;99.90
26947;DHT22;14501;52.282;10.560;2023-08-06T01:57:39;14.70;99.90
26947;DHT22;14501;52.282;10.560;2023-08-06T02:00:05;14.60;99.90
26947;DHT22;14501;52.282;10.560;2023-08-06T02:02:31;14.60;99.90
26947;DHT22;14501;52.282;10.560;2023-08-06T02:04:59;14.60;99.90
26947;DHT22;14501;52.282;10.560;2023-08-06T02:07:24;14.60;99.90
26947;DHT22;14501;52.282;10.560;2023-08-06T02:09:50;14.60;99.90
26947;DHT22;14501;52.282;10.560;2023-08-06T02:12:15;14.60;99.90
26947;DHT22;14501;52.282;10.560;2023-08-06T02:14:41;14.60;99.90
26947;DHT22;14501;52.282;10.560;2023-08-06T02:17:06;14.60;99.90
26947;DHT22;14501;52.282;10.560;2023-08-06T02:19:32;14.70;99.90
26947;DHT22;14501;52.282;10.560;2023-08-06T02:21:58;14.60;99.90
26947;DHT22;14501;52.282;10.560;2023-08-06T02:24:23;14.60;99.90
26947;DHT22;14501;52.282;10.560;2023-08-06T02:26:49;14.60;99.90
26947;DHT22;14501;52.282;10.560;2023-08-06T02:29:17;14.50;99.90
26947;DHT22;14501;52.282;10.560;2023-08-06T02:31:42;14.50;99.90
26947;DHT22;14501;52.282;10.560;2023-08-06T02:34:08;14.50;99.90
26947;DHT22;14501;52.282;10.560;2023-08-06T02:36:33;14.50;99.90
26947;DHT22;14501;52.282;10.560;2023-08-06T02:38:59;14.70;99.90
26947;DHT22;14501;52.282;10.560;2023-08-06T02:41:24;14.50;99.90
26947;DHT22;14501;52.282;10.560;2023-08-06T02:43:50;14.50;99.90
26947;DHT22;14501;52.282;10.560;2023-08-06T02:48:42;14.50;99.90
26947;DHT22;14501;52.282;10.560;2023-08-06T02:51:07;14.50;99.90
26947;DHT22;14501;52.282;10.560;2023-08-06T02:53:33;14.50;99.90
26947;DHT22;14501;52.282;10.560;2023-08-06T02:55:58;14.50;99.90
26947;DHT22;14501;52.282;10.560;2023-08-06T02:58:24;14.50;99.90
26947;DHT22;14501;52.282;10.560;2023-08-06T03:01:04;14.50;99.90
26947;DHT22;14501;52.282;10.560;2023-08-06T03:03:33;14.50;99.90
26947;DHT22;14501;52.282;10.560;2023-08-06T03:05:59;14.60;99.90
26947;DHT22;14501;52.282;10.560;2023-08-06T03:08:25;14.60;99.90
26947;DHT22;14501;52.282;10.560;2023-08-06T03:10:51;14.50;99.90
26947;DHT22;14501;52.282;10.560;2023-08-06T03:13:18;14.70;99.90
26947;DHT22;14501;52.282;10.560;2023-08-06T03:15:51;14.50;99.90
26947;DHT22;14501;52.282;10.560;2023-08-06T03:18:17;14.50;99.90
26947;DHT22;14501;52.282;10.560;2023-08-06T03:20:42;14.50;99.90
26947;DHT22;14501;52.282;10.560;2023-08-06T03:23:08;14.50;99.90
26947;DHT22;14501;52.282;10.560;2023-08-06T03:25:35;14.50;99.90
26947;DHT22;14501;52.282;10.560;2023-08-06T03:28:02;14.40;99.90
26947;DHT22;14501;52.282;10.560;2023-08-06T03:30:27;14.50;99.90
26947;DHT22;14501;52.282;10.560;2023-08-06T03:32:53;14.50;99.90
26947;DHT22;14501;52.282;10.560;2023-08-06T03:35:18;14.50;99.90
26947;DHT22;14501;52.282;10.560;2023-08-06T03:37:44;14.50;99.90
26947;DHT22;14501;52.282;10.560;2023-08-06T03:40:10;14.50;99.90
26947;DHT22;14501;52.282;10.560;2023-08-06T03:42:35;14.50;99.90
26947;DHT22;14501;52.282;10.560;2023-08-06T03:45:01;14.50;99.90
26947;DHT22;14501;52.282;10.560;2023-08-06T03:47:27;14.50;99.90
26947;DHT22;14501;52.282;10.560;2023-08-06T03:49:52;14.50;99.90
26947;DHT22;14501;52.282;10.560;2023-08-06T03:52:18;14.50;99.90
26947;DHT22;14501;52.282;10.560;2023-08-06T03:54:43;14.40;99.90
26947;DHT22;14501;52.282;10.560;2023-08-06T03:57:09;14.50;99.90
26947;DHT22;14501;52.282;10.560;2023-08-06T03:59:35;14.50;99.90
26947;DHT22;14501;52.282;10.560;2023-08-06T04:02:01;14.50;99.90
26947;DHT22;14501;52.282;10.560;2023-08-06T04:04:27;14.50;99.90
26947;DHT22;14501;52.282;10.560;2023-08-06T04:06:53;14.50;99.90
26947;DHT22;14501;52.282;10.560;2023-08-06T04:09:19;14.50;99.90
26947;DHT22;14501;52.282;10.560;2023-08-06T04:11:44;14.50;99.90
26947;DHT22;14501;52.282;10.560;2023-08-06T04:14:10;14.60;99.90
26947;DHT22;14501;52.282;10.560;2023-08-06T04:16:36;14.50;99.90
26947;DHT22;14501;52.282;10.560;2023-08-06T04:19:01;14.50;99.90
26947;DHT22;14501;52.282;10.560;2023-08-06T04:21:27;14.50;99.90
26947;DHT22;14501;52.282;10.560;2023-08-06T04:23:52;14.50;99.90
26947;DHT22;14501;52.282;10.560;2023-08-06T04:26:18;14.60;99.90
26947;DHT22;14501;52.282;10.560;2023-08-06T04:28:43;14.60;99.90
26947;DHT22;14501;52.282;10.560;2023-08-06T04:31:09;14.60;99.90
26947;DHT22;14501;52.282;10.560;2023-08-06T04:33:35;14.60;99.90
26947;DHT22;14501;52.282;10.560;2023-08-06T04:36:00;14.60;99.90
26947;DHT22;14501;52.282;10.560;2023-08-06T04:38:26;14.50;99.90
26947;DHT22;14501;52.282;10.560;2023-08-06T04:40:52;14.50;99.90
26947;DHT22;14501;52.282;10.560;2023-08-06T04:43:18;14.60;99.90
26947;DHT22;14501;52.282;10.560;2023-08-06T04:45:51;14.50;99.90
26947;DHT22;14501;52.282;10.560;2023-08-06T04:48:17;14.50;99.90
26947;DHT22;14501;52.282;10.560;2023-08-06T04:50:47;14.60;99.90
26947;DHT22;14501;52.282;10.560;2023-08-06T04:53:13;14.60;99.90
26947;DHT22;14501;52.282;10.560;2023-08-06T04:55:38;14.50;99.90
26947;DHT22;14501;52.282;10.560;2023-08-06T04:58:04;14.60;99.90
26947;DHT22;14501;52.282;10.560;2023-08-06T05:02:56;14.60;99.90
26947;DHT22;14501;52.282;10.560;2023-08-06T05:05:22;14.70;99.90
26947;DHT22;14501;52.282;10.560;2023-08-06T05:07:48;14.70;99.90
26947;DHT22;14501;52.282;10.560;2023-08-06T05:10:14;14.70;99.90
26947;DHT22;14501;52.282;10.560;2023-08-06T05:12:40;14.70;99.90
26947;DHT22;14501;52.282;10.560;2023-08-06T05:15:06;14.80;99.90
26947;DHT22;14501;52.282;10.560;2023-08-06T05:17:32;14.80;99.90
26947;DHT22;14501;52.282;10.560;2023-08-06T05:19:57;14.80;99.90
26947;DHT22;14501;52.282;10.560;2023-08-06T05:22:23;14.80;99.90
26947;DHT22;14501;52.282;10.560;2023-08-06T05:24:49;14.90;99.90
26947;DHT22;14501;52.282;10.560;2023-08-06T05:27:14;14.90;99.90
26947;DHT22;14501;52.282;10.560;2023-08-06T05:29:40;15.00;99.90
26947;DHT22;14501;52.282;10.560;2023-08-06T05:32:06;15.00;99.90
26947;DHT22;14501;52.282;10.560;2023-08-06T05:34:31;15.20;99.90
26947;DHT22;14501;52.282;10.560;2023-08-06T05:36:57;15.30;99.90
26947;DHT22;14501;52.282;10.560;2023-08-06T05:39:22;15.30;99.90
26947;DHT22;14501;52.282;10.560;2023-08-06T05:41:48;15.50;99.90
26947;DHT22;14501;52.282;10.560;2023-08-06T05:44:14;15.60;99.90
26947;DHT22;14501;52.282;10.560;2023-08-06T05:46:39;15.70;99.90
26947;DHT22;14501;52.282;10.560;2023-08-06T05:49:05;15.70;99.90
26947;DHT22;14501;52.282;10.560;2023-08-06T05:51:30;15.80;99.90
26947;DHT22;14501;52.282;10.560;2023-08-06T05:53:56;15.80;99.90
26947;DHT22;14501;52.282;10.560;2023-08-06T05:56:21;15.90;99.90
26947;DHT22;14501;52.282;10.560;2023-08-06T05:58:47;15.90;99.90
26947;DHT22;14501;52.282;10.560;2023-08-06T06:01:13;15.90;99.90
26947;DHT22;14501;52.282;10.560;2023-08-06T06:03:38;16.00;99.90
26947;DHT22;14501;52.282;10.560;2023-08-06T06:06:04;16.20;99.90
26947;DHT22;14501;52.282;10.560;2023-08-06T06:08:30;16.20;99.90
26947;DHT22;14501;52.282;10.560;2023-08-06T06:10:55;16.20;99.90
26947;DHT22;14501;52.282;10.560;2023-08-06T06:13:21;16.30;99.90
26947;DHT22;14501;52.282;10.560;2023-08-06T06:15:47;16.30;99.90
26947;DHT22;14501;52.282;10.560;2023-08-06T06:18:13;16.30;99.90
26947;DHT22;14501;52.282;10.560;2023-08-06T06:23:04;16.50;99.90
26947;DHT22;14501;52.282;10.560;2023-08-06T06:25:30;16.70;99.90
26947;DHT22;14501;52.282;10.560;2023-08-06T06:27:56;16.70;99.90
26947;DHT22;14501;52.282;10.560;2023-08-06T06:30:21;16.80;99.90
26947;DHT22;14501;52.282;10.560;2023-08-06T06:35:13;17.10;99.90
26947;DHT22;14501;52.282;10.560;2023-08-06T06:37:38;17.30;99.90
26947;DHT22;14501;52.282;10.560;2023-08-06T06:40:04;17.50;99.90
26947;DHT22;14501;52.282;10.560;2023-08-06T06:42:30;17.60;99.90
26947;DHT22;14501;52.282;10.560;2023-08-06T06:44:56;17.80;99.90
26947;DHT22;14501;52.282;10.560;2023-08-06T06:47:21;18.00;99.90
26947;DHT22;14501;52.282;10.560;2023-08-06T06:49:47;18.10;99.90
26947;DHT22;14501;52.282;10.560;2023-08-06T06:52:12;18.20;99.90
26947;DHT22;14501;52.282;10.560;2023-08-06T06:54:38;18.30;99.90
26947;DHT22;14501;52.282;10.560;2023-08-06T06:57:04;18.70;99.90
26947;DHT22;14501;52.282;10.560;2023-08-06T06:59:30;18.80;99.90
26947;DHT22;14501;52.282;10.560;2023-08-06T07:01:55;19.20;99.90
26947;DHT22;14501;52.282;10.560;2023-08-06T07:04:21;19.50;99.90
26947;DHT22;14501;52.282;10.560;2023-08-06T07:06:47;20.00;99.90
26947;DHT22;14501;52.282;10.560;2023-08-06T07:09:13;20.20;99.90
26947;DHT22;14501;52.282;10.560;2023-08-06T07:11:38;21.00;99.90
26947;DHT22;14501;52.282;10.560;2023-08-06T07:14:04;21.90;99.90
26947;DHT22;14501;52.282;10.560;2023-08-06T07:16:29;23.60;99.90
26947;DHT22;14501;52.282;10.560;2023-08-06T07:18:55;24.00;99.90
26947;DHT22;14501;52.282;10.560;2023-08-06T07:21:21;24.90;99.90
26947;DHT22;14501;52.282;10.560;2023-08-06T07:23:46;25.60;99.90
26947;DHT22;14501;52.282;10.560;2023-08-06T07:26:15;26.60;99.90
26947;DHT22;14501;52.282;10.560;2023-08-06T07:28:41;26.60;99.90
26947;DHT22;14501;52.282;10.560;2023-08-06T07:31:06;26.70;99.90
26947;DHT22;14501;52.282;10.560;2023-08-06T07:33:32;26.90;99.90
26947;DHT22;14501;52.282;10.560;2023-08-06T07:35:57;27.60;99.90
26947;DHT22;14501;52.282;10.560;2023-08-06T07:38:23;27.40;99.90
26947;DHT22;14501;52.282;10.560;2023-08-06T07:40:49;27.10;99.90
26947;DHT22;14501;52.282;10.560;2023-08-06T07:43:14;27.70;99.90
26947;DHT22;14501;52.282;10.560;2023-08-06T07:45:40;27.90;99.90
26947;DHT22;14501;52.282;10.560;2023-08-06T07:48:06;28.10;99.90
26947;DHT22;14501;52.282;10.560;2023-08-06T07:50:31;28.10;99.90
26947;DHT22;14501;52.282;10.560;2023-08-06T07:52:57;28.40;99.90
26947;DHT22;14501;52.282;10.560;2023-08-06T07:55:23;28.70;99.90
26947;DHT22;14501;52.282;10.560;2023-08-06T07:57:48;28.90;99.90
26947;DHT22;14501;52.282;10.560;2023-08-06T08:00:14;28.80;99.90
26947;DHT22;14501;52.282;10.560;2023-08-06T08:02:39;28.80;99.90
26947;DHT22;14501;52.282;10.560;2023-08-06T08:05:05;29.70;99.90
26947;DHT22;14501;52.282;10.560;2023-08-06T08:07:32;30.60;99.90
26947;DHT22;14501;52.282;10.560;2023-08-06T08:09:58;31.10;99.90
26947;DHT22;14501;52.282;10.560;2023-08-06T08:12:24;31.80;99.90
26947;DHT22;14501;52.282;10.560;2023-08-06T08:14:49;32.90;99.90
26947;DHT22;14501;52.282;10.560;2023-08-06T08:17:15;33.30;99.00
26947;DHT22;14501;52.282;10.560;2023-08-06T08:19:40;32.90;99.90
26947;DHT22;14501;52.282;10.560;2023-08-06T08:22:06;32.80;98.60
26947;DHT22;14501;52.282;10.560;2023-08-06T08:24:32;32.50;99.10
26947;DHT22;14501;52.282;10.560;2023-08-06T08:26:57;31.70;98.70
26947;DHT22;14501;52.282;10.560;2023-08-06T08:29:23;31.70;99.90
26947;DHT22;14501;52.282;10.560;2023-08-06T08:31:49;31.60;98.90
26947;DHT22;14501;52.282;10.560;2023-08-06T08:34:16;32.00;99.90
26947;DHT22;14501;52.282;10.560;2023-08-06T08:36:41;32.50;97.10
26947;DHT22;14501;52.282;10.560;2023-08-06T08:39:07;32.50;96.40
26947;DHT22;14501;52.282;10.560;2023-08-06T08:41:33;32.60;96.30
26947;DHT22;14501;52.282;10.560;2023-08-06T08:44:00;32.60;98.60
26947;DHT22;14501;52.282;10.560;2023-08-06T08:46:27;32.90;97.10
26947;DHT22;14501;52.282;10.560;2023-08-06T08:48:55;32.90;97.70
26947;DHT22;14501;52.282;10.560;2023-08-06T08:51:23;32.60;96.90
26947;DHT22;14501;52.282;10.560;2023-08-06T08:53:49;32.10;96.50
26947;DHT22;14501;52.282;10.560;2023-08-06T08:56:18;32.10;96.90
26947;DHT22;14501;52.282;10.560;2023-08-06T08:58:44;32.30;96.50
26947;DHT22;14501;52.282;10.560;2023-08-06T09:01:10;32.40;94.90
26947;DHT22;14501;52.282;10.560;2023-08-06T09:03:37;32.20;95.60
26947;DHT22;14501;52.282;10.560;2023-08-06T09:06:03;32.30;95.40
26947;DHT22;14501;52.282;10.560;2023-08-06T09:08:35;32.00;95.10
26947;DHT22;14501;52.282;10.560;2023-08-06T09:11:02;32.80;94.10
26947;DHT22;14501;52.282;10.560;2023-08-06T09:13:28;33.30;94.60
26947;DHT22;14501;52.282;10.560;2023-08-06T09:15:53;34.00;92.50
26947;DHT22;14501;52.282;10.560;2023-08-06T09:18:29;33.90;91.90
26947;DHT22;14501;52.282;10.560;2023-08-06T09:20:56;34.20;93.50
26947;DHT22;14501;52.282;10.560;2023-08-06T09:23:28;34.60;92.50
26947;DHT22;14501;52.282;10.560;2023-08-06T09:25:55;34.10;91.10
26947;DHT22;14501;52.282;10.560;2023-08-06T09:28:20;33.90;91.80
26947;DHT22;14501;52.282;10.560;2023-08-06T09:30:47;33.00;92.60
26947;DHT22;14501;52.282;10.560;2023-08-06T09:33:18;31.50;93.50
26947;DHT22;14501;52.282;10.560;2023-08-06T09:38:10;30.10;96.80
26947;DHT22;14501;52.282;10.560;2023-08-06T09:40:37;29.60;95.40
26947;DHT22;14501;52.282;10.560;2023-08-06T09:43:03;28.60;96.20
26947;DHT22;14501;52.282;10.560;2023-08-06T09:47:59;28.20;99.50
26947;DHT22;14501;52.282;10.560;2023-08-06T09:50:30;29.90;96.60
26947;DHT22;14501;52.282;10.560;2023-08-06T09:52:57;32.40;95.30
26947;DHT22;14501;52.282;10.560;2023-08-06T09:55:24;34.70;91.30
26947;DHT22;14501;52.282;10.560;2023-08-06T09:57:52;36.40;91.00
26947;DHT22;14501;52.282;10.560;2023-08-06T10:00:18;36.10;85.70
26947;DHT22;14501;52.282;10.560;2023-08-06T10:02:43;37.50;88.30
26947;DHT22;14501;52.282;10.560;2023-08-06T10:05:10;37.90;83.40
26947;DHT22;14501;52.282;10.560;2023-08-06T10:07:36;38.40;79.50
26947;DHT22;14501;52.282;10.560;2023-08-06T10:10:05;36.50;80.00
26947;DHT22;14501;52.282;10.560;2023-08-06T10:12:40;35.10;82.60
26947;DHT22;14501;52.282;10.560;2023-08-06T10:15:11;35.30;83.90
26947;DHT22;14501;52.282;10.560;2023-08-06T10:17:38;35.90;83.50
26947;DHT22;14501;52.282;10.560;2023-08-06T10:20:05;35.90;80.90
26947;DHT22;14501;52.282;10.560;2023-08-06T10:22:33;34.60;84.80
26947;DHT22;14501;52.282;10.560;2023-08-06T10:24:59;32.80;85.10
26947;DHT22;14501;52.282;10.560;2023-08-06T10:32:56;35.00;87.00
26947;DHT22;14501;52.282;10.560;2023-08-06T10:35:43;36.10;81.20
26947;DHT22;14501;52.282;10.560;2023-08-06T10:38:20;34.30;83.00
26947;DHT22;14501;52.282;10.560;2023-08-06T10:43:30;31.30;85.90
26947;DHT22;14501;52.282;10.560;2023-08-06T10:45:58;29.10;93.20
26947;DHT22;14501;52.282;10.560;2023-08-06T10:48:38;28.90;93.80
26947;DHT22;14501;52.282;10.560;2023-08-06T10:51:08;28.70;94.50
26947;DHT22;14501;52.282;10.560;2023-08-06T10:53:33;28.50;93.20
26947;DHT22;14501;52.282;10.560;2023-08-06T10:55:59;28.10;93.20
26947;DHT22;14501;52.282;10.560;2023-08-06T10:58:25;28.10;92.80
26947;DHT22;14501;52.282;10.560;2023-08-06T11:00:51;27.80;94.00
26947;DHT22;14501;52.282;10.560;2023-08-06T11:03:17;28.00;93.20
26947;DHT22;14501;52.282;10.560;2023-08-06T11:05:49;27.80;95.80
26947;DHT22;14501;52.282;10.560;2023-08-06T11:08:27;27.80;96.30
26947;DHT22;14501;52.282;10.560;2023-08-06T11:10:53;28.00;95.10
26947;DHT22;14501;52.282;10.560;2023-08-06T11:13:20;27.90;94.70
26947;DHT22;14501;52.282;10.560;2023-08-06T11:15:47;27.30;96.20
26947;DHT22;14501;52.282;10.560;2023-08-06T11:18:12;27.20;96.60
26947;DHT22;14501;52.282;10.560;2023-08-06T11:20:39;26.90;96.80
26947;DHT22;14501;52.282;10.560;2023-08-06T11:25:35;26.30;96.80
26947;DHT22;14501;52.282;10.560;2023-08-06T11:28:01;25.90;97.40
26947;DHT22;14501;52.282;10.560;2023-08-06T11:30:27;25.80;99.90
26947;DHT22;14501;52.282;10.560;2023-08-06T11:32:52;26.00;98.40
26947;DHT22;14501;52.282;10.560;2023-08-06T11:35:20;26.40;97.30
26947;DHT22;14501;52.282;10.560;2023-08-06T11:37:46;26.40;96.10
26947;DHT22;14501;52.282;10.560;2023-08-06T11:40:13;26.30;99.80
26947;DHT22;14501;52.282;10.560;2023-08-06T11:42:40;26.50;99.40
26947;DHT22;14501;52.282;10.560;2023-08-06T11:45:07;26.80;97.00
26947;DHT22;14501;52.282;10.560;2023-08-06T11:47:38;27.00;98.20
26947;DHT22;14501;52.282;10.560;2023-08-06T11:50:05;27.20;97.80
26947;DHT22;14501;52.282;10.560;2023-08-06T11:52:31;27.50;98.80
26947;DHT22;14501;52.282;10.560;2023-08-06T11:55:09;27.70;97.50
26947;DHT22;14501;52.282;10.560;2023-08-06T11:57:43;28.10;96.00
26947;DHT22;14501;52.282;10.560;2023-08-06T12:00:11;28.30;96.30
26947;DHT22;14501;52.282;10.560;2023-08-06T12:02:39;28.50;97.10
26947;DHT22;14501;52.282;10.560;2023-08-06T12:07:49;28.40;93.10
26947;DHT22;14501;52.282;10.560;2023-08-06T12:10:16;28.50;93.20
26947;DHT22;14501;52.282;10.560;2023-08-06T12:12:41;28.50;96.50
26947;DHT22;14501;52.282;10.560;2023-08-06T12:15:08;28.60;93.30
26947;DHT22;14501;52.282;10.560;2023-08-06T12:17:35;28.30;93.60
26947;DHT22;14501;52.282;10.560;2023-08-06T12:20:05;27.60;94.40
26947;DHT22;14501;52.282;10.560;2023-08-06T12:22:31;26.80;95.10
26947;DHT22;14501;52.282;10.560;2023-08-06T12:25:01;26.30;95.80
26947;DHT22;14501;52.282;10.560;2023-08-06T12:27:28;26.40;98.90
26947;DHT22;14501;52.282;10.560;2023-08-06T12:29:54;26.50;98.30
26947;DHT22;14501;52.282;10.560;2023-08-06T12:32:19;26.90;97.40
26947;DHT22;14501;52.282;10.560;2023-08-06T12:34:45;26.90;96.50
26947;DHT22;14501;52.282;10.560;2023-08-06T12:37:13;26.90;92.90
26947;DHT22;14501;52.282;10.560;2023-08-06T12:39:38;27.70;94.40
26947;DHT22;14501;52.282;10.560;2023-08-06T12:42:05;26.80;94.50
26947;DHT22;14501;52.282;10.560;2023-08-06T12:44:31;26.30;95.70
26947;DHT22;14501;52.282;10.560;2023-08-06T12:46:57;25.60;96.70
26947;DHT22;14501;52.282;10.560;2023-08-06T12:49:24;25.40;96.20
26947;DHT22;14501;52.282;10.560;2023-08-06T12:51:50;25.10;97.90
26947;DHT22;14501;52.282;10.560;2023-08-06T12:54:20;24.50;97.00
26947;DHT22;14501;52.282;10.560;2023-08-06T12:56:46;24.50;99.90
26947;DHT22;14501;52.282;10.560;2023-08-06T12:59:14;24.50;99.10
26947;DHT22;14501;52.282;10.560;2023-08-06T13:01:40;24.60;97.70
26947;DHT22;14501;52.282;10.560;2023-08-06T13:04:05;24.60;98.90
26947;DHT22;14501;52.282;10.560;2023-08-06T13:06:31;25.00;98.90
26947;DHT22;14501;52.282;10.560;2023-08-06T13:11:27;25.00;97.00
26947;DHT22;14501;52.282;10.560;2023-08-06T13:13:52;24.90;99.10
26947;DHT22;14501;52.282;10.560;2023-08-06T13:16:18;25.10;99.90
26947;DHT22;14501;52.282;10.560;2023-08-06T13:18:43;25.10;99.20
26947;DHT22;14501;52.282;10.560;2023-08-06T13:21:09;25.30;99.90
26947;DHT22;14501;52.282;10.560;2023-08-06T13:23:35;25.40;98.70
26947;DHT22;14501;52.282;10.560;2023-08-06T13:26:00;25.20;97.80
26947;DHT22;14501;52.282;10.560;2023-08-06T13:28:26;25.30;97.70
26947;DHT22;14501;52.282;10.560;2023-08-06T13:30:51;25.00;97.60
26947;DHT22;14501;52.282;10.560;2023-08-06T13:33:17;24.60;96.10
26947;DHT22;14501;52.282;10.560;2023-08-06T13:35:43;24.30;99.60
26947;DHT22;14501;52.282;10.560;2023-08-06T13:38:08;24.20;99.90
26947;DHT22;14501;52.282;10.560;2023-08-06T13:40:34;24.40;99.40
26947;DHT22;14501;52.282;10.560;2023-08-06T13:43:00;24.70;99.40
26947;DHT22;14501;52.282;10.560;2023-08-06T13:45:26;25.00;97.80
26947;DHT22;14501;52.282;10.560;2023-08-06T13:47:51;25.30;99.00
26947;DHT22;14501;52.282;10.560;2023-08-06T13:50:17;25.40;97.90
26947;DHT22;14501;52.282;10.560;2023-08-06T13:52:43;25.20;96.70
26947;DHT22;14501;52.282;10.560;2023-08-06T13:55:08;24.90;99.30
26947;DHT22;14501;52.282;10.560;2023-08-06T13:57:35;24.70;98.90
26947;DHT22;14501;52.282;10.560;2023-08-06T14:00:01;24.50;99.60
26947;DHT22;14501;52.282;10.560;2023-08-06T14:02:26;24.30;99.90
26947;DHT22;14501;52.282;10.560;2023-08-06T14:04:55;24.30;99.10
26947;DHT22;14501;52.282;10.560;2023-08-06T14:07:21;24.50;99.90
26947;DHT22;14501;52.282;10.560;2023-08-06T14:09:46;24.60;99.90
26947;DHT22;14501;52.282;10.560;2023-08-06T14:12:13;24.60;99.90
26947;DHT22;14501;52.282;10.560;2023-08-06T14:14:39;24.70;99.90
26947;DHT22;14501;52.282;10.560;2023-08-06T14:17:05;25.00;97.00
26947;DHT22;14501;52.282;10.560;2023-08-06T14:19:30;25.10;98.20
26947;DHT22;14501;52.282;10.560;2023-08-06T14:21:56;25.40;99.00
26947;DHT22;14501;52.282;10.560;2023-08-06T14:24:22;25.50;98.10
26947;DHT22;14501;52.282;10.560;2023-08-06T14:26:47;25.60;98.40
26947;DHT22;14501;52.282;10.560;2023-08-06T14:29:13;25.70;97.40
26947;DHT22;14501;52.282;10.560;2023-08-06T14:31:40;25.70;97.10
26947;DHT22;14501;52.282;10.560;2023-08-06T14:34:06;25.80;99.10
26947;DHT22;14501;52.282;10.560;2023-08-06T14:36:32;25.20;96.80
26947;DHT22;14501;52.282;10.560;2023-08-06T14:38:57;25.10;97.90
26947;DHT22;14501;52.282;10.560;2023-08-06T14:41:23;24.60;99.90
26947;DHT22;14501;52.282;10.560;2023-08-06T14:43:49;24.50;99.90
26947;DHT22;14501;52.282;10.560;2023-08-06T14:46:15;24.40;99.90
26947;DHT22;14501;52.282;10.560;2023-08-06T14:48:41;24.30;99.90
26947;DHT22;14501;52.282;10.560;2023-08-06T14:51:08;23.90;99.90
26947;DHT22;14501;52.282;10.560;2023-08-06T14:53:33;23.80;99.90
26947;DHT22;14501;52.282;10.560;2023-08-06T14:55:59;23.80;99.90
26947;DHT22;14501;52.282;10.560;2023-08-06T14:58:25;23.70;99.90
26947;DHT22;14501;52.282;10.560;2023-08-06T15:00:50;23.40;99.90
26947;DHT22;14501;52.282;10.560;2023-08-06T15:03:16;23.20;99.90
26947;DHT22;14501;52.282;10.560;2023-08-06T15:05:47;23.10;99.90
26947;DHT22;14501;52.282;10.560;2023-08-06T15:08:13;23.00;99.90
26947;DHT22;14501;52.282;10.560;2023-08-06T15:10:38;22.90;99.90
26947;DHT22;14501;52.282;10.560;2023-08-06T15:13:04;23.00;99.90
26947;DHT22;14501;52.282;10.560;2023-08-06T15:15:30;23.10;99.90
26947;DHT22;14501;52.282;10.560;2023-08-06T15:17:55;23.30;99.90
26947;DHT22;14501;52.282;10.560;2023-08-06T15:20:23;23.40;99.90
26947;DHT22;14501;52.282;10.560;2023-08-06T15:22:48;23.40;99.90
26947;DHT22;14501;52.282;10.560;2023-08-06T15:25:14;23.60;99.90
26947;DHT22;14501;52.282;10.560;2023-08-06T15:27:40;23.50;99.90
26947;DHT22;14501;52.282;10.560;2023-08-06T15:30:06;23.50;99.90
26947;DHT22;14501;52.282;10.560;2023-08-06T15:32:32;23.50;99.90
26947;DHT22;14501;52.282;10.560;2023-08-06T15:34:57;23.60;99.90
26947;DHT22;14501;52.282;10.560;2023-08-06T15:37:23;23.60;99.90
26947;DHT22;14501;52.282;10.560;2023-08-06T15:39:49;23.70;99.90
26947;DHT22;14501;52.282;10.560;2023-08-06T15:42:14;23.70;99.90
26947;DHT22;14501;52.282;10.560;2023-08-06T15:44:41;23.60;99.90
26947;DHT22;14501;52.282;10.560;2023-08-06T15:47:07;23.50;99.90
26947;DHT22;14501;52.282;10.560;2023-08-06T15:49:32;23.60;99.90
26947;DHT22;14501;52.282;10.560;2023-08-06T15:51:58;23.60;99.90